Time;durP1;ratioP1;P1;durP2;ratioP2;P2;SDS_P1;SDS_P2;PMS_P1;PMS_P2;Temp;Humidity;BMP_temperature;BMP_pressure;BME280_temperature;BME280_humidity;BME280_pressure;Samples;Min_cycle;Max_cycle;Signal;HPM_P1;HPM_P2
2021/10/09 07:52:48;;;;;;;49.47;33.75;;;10.00;97.30;;;;;;6248733;22;20028;-93
2021/10/09 08:13:27;;;;;;;44.42;32.75;;;10.50;96.20;;;;;;6223332;22;20027;-90
2021/10/09 08:19:10;;;;;;;47.22;34.20;;;10.60;96.00;;;;;;6238514;22;20008;-92
2021/10/09 08:21:49;;;;;;;44.55;34.13;;;10.60;95.90;;;;;;6233058;22;20007;-94
2021/10/09 09:52:39;;;;;;;;;;;;;;;;;;;;;
2021/10/09 11:56:25;;;;;;;28.42;22.05;;;14.80;88.50;;;;;;5811391;22;9508623;-89
2021/10/09 11:59:45;;;;;;;25.80;20.58;;;14.80;88.70;;;;;;6171390;23;20036;-90
2021/10/09 12:02:45;;;;;;;25.55;19.58;;;14.90;89.30;;;;;;6187696;23;20058;-89
2021/10/09 12:05:31;;;;;;;24.83;20.13;;;15.00;89.70;;;;;;6197729;23;20063;-92
2021/10/09 12:08:23;;;;;;;27.35;22.00;;;15.00;89.20;;;;;;6200761;23;20092;-93
2021/10/09 12:11:23;;;;;;;26.55;19.42;;;15.10;88.60;;;;;;6198432;23;20005;-94
2021/10/09 12:14:14;;;;;;;26.52;20.48;;;15.10;89.30;;;;;;6199276;23;20001;-92
2021/10/09 12:17:06;;;;;;;26.40;20.17;;;15.20;89.00;;;;;;6174505;23;20008;-93
2021/10/09 12:19:35;;;;;;;26.63;20.73;;;15.30;88.60;;;;;;6202036;23;20441;-93
2021/10/09 12:22:13;;;;;;;26.52;21.38;;;15.30;88.40;;;;;;6194414;23;20007;-90
2021/10/09 12:24:55;;;;;;;23.63;19.88;;;15.40;88.50;;;;;;6190827;23;20011;-93
2021/10/09 12:27:40;;;;;;;28.27;20.17;;;15.40;88.60;;;;;;6221413;23;19997;-90
2021/10/09 12:30:18;;;;;;;26.65;21.33;;;15.50;88.50;;;;;;6197266;23;20023;-91
2021/10/09 12:32:50;;;;;;;25.23;19.85;;;15.60;88.20;;;;;;6148393;23;20027;-93
2021/10/09 12:35:34;;;;;;;28.05;21.35;;;15.60;88.20;;;;;;6225448;23;19996;-91
2021/10/09 12:38:15;;;;;;;28.70;21.10;;;15.60;87.70;;;;;;6217680;23;19992;-93
2021/10/09 12:40:47;;;;;;;26.00;20.13;;;15.60;87.00;;;;;;6213965;23;19997;-92
2021/10/09 12:46:40;;;;;;;24.83;19.08;;;15.70;87.60;;;;;;6195019;23;20581;-93
2021/10/09 12:49:06;;;;;;;24.50;18.73;;;15.70;87.50;;;;;;6166399;23;20013;-92
2021/10/09 12:51:55;;;;;;;;;;;;;;;;;;;;;
2021/10/09 12:55:02;;;;;;;21.25;18.42;;;15.80;87.90;;;;;;6193586;23;20029;-93
2021/10/09 12:57:45;;;;;;;;;;;;;;;;;;;;;
2021/10/09 13:03:50;;;;;;;22.60;18.10;;;15.90;86.50;;;;;;6017789;23;20008;-92
2021/10/09 13:06:38;;;;;;;25.17;19.45;;;16.00;86.50;;;;;;6139422;23;20010;-95
2021/10/09 13:09:19;;;;;;;;;;;;;;;;;;;;;
2021/10/09 13:12:01;;;;;;;;;;;16.10;86.20;;;;;;6167119;23;20037;-95
2021/10/09 13:14:30;;;;;;;28.95;20.52;;;16.10;86.30;;;;;;6142206;23;19911;-93
2021/10/09 13:20:22;;;;;;;25.88;19.88;;;16.20;85.90;;;;;;6161551;23;20013;-93
2021/10/09 13:29:10;;;;;;;25.85;19.02;;;16.30;84.10;;;;;;6166223;23;20019;-95
2021/10/09 13:31:45;;;;;;;21.95;17.60;;;16.20;83.60;;;;;;6165236;23;20071;-94
2021/10/09 13:34:24;;;;;;;22.08;17.05;;;16.30;84.10;;;;;;6164495;23;20009;-94
2021/10/09 13:37:20;;;;;;;;;;;;;;;;;;;;;
2021/10/09 13:40:10;;;;;;;26.00;19.65;;;16.30;84.90;;;;;;6165072;23;20024;-93
2021/10/09 13:42:42;;;;;;;25.70;19.98;;;16.30;84.90;;;;;;6163979;23;20036;-92
2021/10/09 13:45:13;;;;;;;27.58;19.77;;;16.40;83.20;;;;;;6164441;23;20002;-94
2021/10/09 13:47:51;;;;;;;;;;;;;;;;;;;;;
2021/10/09 13:50:32;;;;;;;;;;;;;;;;;;;;;
2021/10/09 13:53:10;;;;;;;22.42;16.73;;;16.40;83.60;;;;;;6142256;23;20036;-93
2021/10/09 13:59:59;;;;;;;;;;;;;;;;;;;;;
2021/10/09 14:02:54;;;;;;;25.23;18.52;;;16.60;83.40;;;;;;6194747;23;20025;-93
2021/10/09 14:05:33;;;;;;;24.08;18.15;;;16.60;83.20;;;;;;6189106;23;19985;-94
2021/10/09 14:08:12;;;;;;;26.63;17.98;;;16.60;83.40;;;;;;6169575;23;20016;-94
2021/10/09 14:11:27;;;;;;;;;;;;;;;;;;;;;
2021/10/09 14:17:34;;;;;;;;;;;16.60;81.90;;;;;;6177965;23;20005;-94
2021/10/09 14:20:16;;;;;;;27.17;18.77;;;16.60;82.50;;;;;;6191972;23;19940;-93
2021/10/09 14:23:12;;;;;;;23.73;18.08;;;16.60;82.70;;;;;;6190381;23;20005;-93
2021/10/09 14:25:41;;;;;;;24.23;18.85;;;16.70;82.70;;;;;;6191086;23;20051;-93
2021/10/09 14:28:42;;;;;;;26.45;19.35;;;16.60;82.80;;;;;;6167242;23;20017;-94
2021/10/09 14:31:08;;;;;;;24.70;18.70;;;16.60;82.60;;;;;;6163605;23;19989;-93
2021/10/09 14:33:44;;;;;;;24.48;18.67;;;16.60;83.20;;;;;;6212508;23;19990;-93
2021/10/09 14:36:40;;;;;;;24.67;18.30;;;16.60;83.50;;;;;;6189369;23;20020;-94
2021/10/09 14:39:29;;;;;;;;;;;;;;;;;;;;;
2021/10/09 14:42:20;;;;;;;22.63;17.45;;;16.70;84.60;;;;;;6211309;23;20005;-96
2021/10/09 14:44:54;;;;;;;24.15;18.67;;;16.70;84.10;;;;;;6174915;23;20001;-93
2021/10/09 15:01:47;;;;;;;22.88;17.77;;;17.40;83.10;;;;;;6225688;23;20040;-92
2021/10/09 15:19:57;;;;;;;23.15;18.08;;;17.20;82.10;;;;;;6213879;23;20617;-94
2021/10/09 15:22:28;;;;;;;25.15;19.08;;;17.10;82.50;;;;;;6174084;23;20012;-95
2021/10/09 15:24:56;;;;;;;26.33;18.17;;;17.10;82.70;;;;;;6173522;23;20000;-93
2021/10/09 15:27:29;;;;;;;22.13;18.65;;;17.00;83.20;;;;;;6197500;23;20005;-95
2021/10/09 15:30:30;;;;;;;;;;;;;;;;;;;;;
2021/10/09 15:33:14;;;;;;;;;;;;;;;;;;;;;
2021/10/09 15:36:07;;;;;;;26.90;19.15;;;16.80;84.00;;;;;;6180026;23;20035;-93
2021/10/09 15:44:50;;;;;;;22.75;18.20;;;16.60;84.50;;;;;;6164804;23;20106;-94
2021/10/09 15:57:01;;;;;;;24.15;18.90;;;16.40;84.80;;;;;;6121109;23;20055;-93
2021/10/09 15:59:49;;;;;;;21.95;17.55;;;16.40;84.80;;;;;;6228272;23;20031;-95
2021/10/09 16:02:40;;;;;;;24.95;17.58;;;16.40;85.20;;;;;;6201484;23;20016;-92
2021/10/09 16:05:24;;;;;;;22.75;17.45;;;16.30;85.70;;;;;;6202907;23;20005;-93
2021/10/09 16:07:58;;;;;;;26.05;18.08;;;16.30;86.20;;;;;;6204346;23;20008;-94
2021/10/09 16:16:11;;;;;;;23.92;16.88;;;16.10;86.40;;;;;;6231245;23;20005;-93
2021/10/09 16:18:52;;;;;;;22.92;17.80;;;16.00;86.60;;;;;;6200395;23;20009;-94
2021/10/09 16:24:45;;;;;;;20.90;17.48;;;16.00;86.90;;;;;;6211916;23;20088;-93
2021/10/09 16:35:38;;;;;;;;;;;;;;;;;;;;;
2021/10/09 16:38:05;;;;;;;26.95;18.90;;;15.60;88.20;;;;;;6220293;23;20000;-93
2021/10/09 16:41:15;;;;;;;23.08;17.95;;;15.60;88.50;;;;;;6217892;23;19992;-95
2021/10/09 16:44:04;;;;;;;22.85;18.38;;;15.60;88.90;;;;;;6195693;23;20004;-94
2021/10/09 16:50:35;;;;;;;;;;;15.40;89.30;;;;;;6231606;23;20075;-94
2021/10/09 16:53:27;;;;;;;23.27;18.80;;;15.30;89.30;;;;;;6223172;23;19907;-93
2021/10/09 16:56:06;;;;;;;;;;;;;;;;;;;;;
2021/10/09 16:58:58;;;;;;;;;;;;;;;;;;;;;
2021/10/09 17:04:58;;;;;;;;;;;;;;;;;;;;;
2021/10/09 17:08:10;;;;;;;;;;;;;;;;;;;;;
2021/10/09 17:14:21;;;;;;;25.30;19.15;;;15.00;89.70;;;;;;6213163;23;20501;-95
2021/10/09 17:17:18;;;;;;;23.20;18.55;;;14.90;89.90;;;;;;6200729;23;20005;-93
2021/10/09 17:23:36;;;;;;;23.65;19.17;;;14.80;90.10;;;;;;6144866;23;20002;-94
2021/10/09 17:26:12;;;;;;;27.98;20.30;;;14.70;90.10;;;;;;6185189;23;20026;-94
2021/10/09 17:29:03;;;;;;;;;;;;;;;;;;;;;
2021/10/09 17:32:03;;;;;;;25.83;21.08;;;14.50;90.20;;;;;;6203492;23;20028;-95
2021/10/09 17:34:54;;;;;;;;;;;;;;;;;;;;;
2021/10/09 17:38:07;;;;;;;;;;;;;;;;;;;;;
2021/10/09 17:41:43;;;;;;;;;;;;;;;;;;;;;
2021/10/09 17:44:29;;;;;;;;;;;;;;;;;;;;;
2021/10/09 17:47:16;;;;;;;29.33;21.75;;;14.20;90.50;;;;;;6202369;23;20040;-94
2021/10/09 17:49:47;;;;;;;34.65;22.48;;;14.20;90.60;;;;;;6193855;23;20040;-93
2021/10/09 17:52:35;;;;;;;26.67;21.23;;;14.10;90.60;;;;;;6194638;23;20001;-92
2021/10/09 17:55:07;;;;;;;25.65;21.23;;;14.10;90.70;;;;;;6170255;23;20063;-93
2021/10/09 18:00:53;;;;;;;26.88;21.48;;;14.00;90.80;;;;;;6141644;23;20028;-94
2021/10/09 18:03:45;;;;;;;28.08;21.13;;;14.00;90.80;;;;;;6196199;23;20004;-93
2021/10/09 18:06:28;;;;;;;26.83;21.05;;;14.00;90.80;;;;;;6184641;23;20024;-92
2021/10/09 18:09:07;;;;;;;;;;;;;;;;;;;;;
2021/10/09 18:12:03;;;;;;;25.08;20.25;;;13.90;90.90;;;;;;6224216;23;20016;-92
2021/10/09 18:14:39;;;;;;;;;;;;;;;;;;;;;
2021/10/09 18:17:54;;;;;;;32.53;21.77;;;13.90;90.90;;;;;;6229632;23;20032;-93
2021/10/09 18:20:53;;;;;;;28.33;20.05;;;13.80;91.20;;;;;;6234769;23;20024;-92
2021/10/09 18:27:26;;;;;;;29.85;22.00;;;13.70;91.00;;;;;;6121864;23;20022;-91
2021/10/09 18:33:10;;;;;;;28.20;22.00;;;13.70;91.10;;;;;;6030571;23;20012;-91
2021/10/09 18:35:39;;;;;;;25.83;20.88;;;13.60;91.40;;;;;;6030211;23;20020;-92
2021/10/09 18:38:14;;;;;;;28.88;21.55;;;13.60;91.10;;;;;;6113641;23;20025;-91
2021/10/09 18:41:01;;;;;;;28.50;20.30;;;13.50;91.10;;;;;;6085805;23;20073;-92
2021/10/09 18:43:33;;;;;;;32.15;21.98;;;13.50;91.20;;;;;;6108567;23;20002;-94
2021/10/09 18:46:24;;;;;;;29.35;20.90;;;13.40;91.20;;;;;;6083892;23;20313;-92
2021/10/09 18:49:11;;;;;;;;;;;;;;;;;;;;;
2021/10/09 18:51:40;;;;;;;30.70;21.67;;;13.40;91.30;;;;;;6114874;23;20041;-93
2021/10/09 18:54:17;;;;;;;31.17;21.75;;;13.30;91.30;;;;;;6148165;23;20084;-91
2021/10/09 18:57:13;;;;;;;28.92;21.17;;;13.30;91.40;;;;;;6199791;23;20000;-92
2021/10/09 19:00:09;;;;;;;;;;;;;;;;;;;;;
2021/10/09 19:05:56;;;;;;;;;;;;;;;;;;;;;
2021/10/09 19:08:55;;;;;;;;;;;;;;;;;;;;;
2021/10/09 19:11:37;;;;;;;32.40;22.50;;;13.10;91.30;;;;;;6222060;23;20032;-91
2021/10/09 19:14:37;;;;;;;;;;;;;;;;;;;;;
2021/10/09 19:17:16;;;;;;;;;;;;;;;;;;;;;
2021/10/09 19:20:09;;;;;;;30.13;22.85;;;13.00;91.40;;;;;;6181057;23;20473;-92
2021/10/09 19:22:44;;;;;;;30.92;22.00;;;13.00;91.40;;;;;;6200819;23;20012;-92
2021/10/09 19:25:39;;;;;;;29.85;23.58;;;12.90;91.50;;;;;;6201802;23;20389;-93
2021/10/09 19:28:10;;;;;;;28.67;21.27;;;12.80;91.50;;;;;;6171199;23;20023;-94
2021/10/09 19:31:03;;;;;;;32.30;23.83;;;12.80;91.50;;;;;;6196135;23;20000;-94
2021/10/09 19:33:47;;;;;;;;;;;;;;;;;;;;;
2021/10/09 19:36:18;;;;;;;29.63;22.05;;;12.70;91.60;;;;;;6175245;23;20047;-93
2021/10/09 19:38:55;;;;;;;;;;;12.70;91.60;;;;;;6196081;23;20440;-92
2021/10/09 19:41:24;;;;;;;30.05;22.52;;;12.70;91.70;;;;;;6193221;23;19900;-95
2021/10/09 19:43:55;;;;;;;32.38;22.75;;;12.60;91.70;;;;;;6196902;23;20001;-92
2021/10/09 19:47:10;;;;;;;33.08;23.35;;;12.60;91.70;;;;;;6196975;23;20007;-94
2021/10/09 19:49:49;;;;;;;29.38;22.27;;;12.50;91.80;;;;;;6196960;23;20012;-92
2021/10/09 19:56:00;;;;;;;30.45;23.52;;;12.50;91.80;;;;;;6225027;23;20065;-92
2021/10/09 19:58:49;;;;;;;;;;;;;;;;;;;;;
2021/10/09 20:01:29;;;;;;;31.75;23.30;;;12.40;91.90;;;;;;6206460;23;20039;-91
2021/10/09 20:04:27;;;;;;;32.67;23.45;;;12.40;91.90;;;;;;6189004;23;20000;-94
2021/10/09 20:07:18;;;;;;;30.45;23.30;;;12.30;91.90;;;;;;6196897;23;19996;-91
2021/10/09 20:13:30;;;;;;;32.30;23.00;;;12.30;92.00;;;;;;6221887;23;20008;-92
2021/10/09 20:15:56;;;;;;;31.35;23.60;;;12.20;92.00;;;;;;6242642;23;20005;-93
2021/10/09 20:18:35;;;;;;;33.80;24.98;;;12.20;92.10;;;;;;6217432;23;20005;-90
2021/10/09 20:24:23;;;;;;;;;;;;;;;;;;;;;
2021/10/09 20:27:04;;;;;;;;;;;;;;;;;;;;;
2021/10/09 20:29:56;;;;;;;34.20;24.08;;;12.10;92.10;;;;;;6205158;23;20040;-92
2021/10/09 20:32:43;;;;;;;;;;;;;;;;;;;;;
2021/10/09 20:35:26;;;;;;;;;;;;;;;;;;;;;
2021/10/09 20:38:11;;;;;;;;;;;;;;;;;;;;;
2021/10/09 20:41:02;;;;;;;32.20;23.35;;;11.90;92.10;;;;;;6233936;23;20005;-93
2021/10/09 20:43:47;;;;;;;33.55;24.75;;;11.90;92.10;;;;;;6235241;23;20127;-92
2021/10/09 20:46:18;;;;;;;33.40;24.98;;;11.80;92.10;;;;;;6161667;23;20004;-91
2021/10/09 20:48:56;;;;;;;;;;;;;;;;;;;;;
2021/10/09 20:51:37;;;;;;;31.83;24.45;;;11.80;92.10;;;;;;6211281;23;20701;-93
2021/10/09 20:54:15;;;;;;;34.73;24.53;;;11.70;92.10;;;;;;6185939;23;20023;-92
2021/10/09 20:57:05;;;;;;;;;;;;;;;;;;;;;
2021/10/09 20:59:34;;;;;;;33.97;24.47;;;11.70;92.10;;;;;;6234019;23;20001;-93
2021/10/09 21:02:31;;;;;;;30.60;23.27;;;11.60;92.00;;;;;;6207695;23;20037;-92
2021/10/09 21:05:47;;;;;;;;;;;;;;;;;;;;;
2021/10/09 21:23:41;;;;;;;31.75;24.15;;;11.40;92.20;;;;;;6094197;23;20104;-91
2021/10/09 21:26:40;;;;;;;29.48;22.73;;;11.40;92.20;;;;;;6165562;23;20005;-90
2021/10/09 21:29:19;;;;;;;28.90;22.30;;;11.40;92.20;;;;;;6187296;23;20013;-93
2021/10/09 21:32:05;;;;;;;;;;;;;;;;;;;;;
2021/10/09 21:35:05;;;;;;;28.45;21.98;;;11.30;92.30;;;;;;6212802;23;20012;-90
2021/10/09 21:38:06;;;;;;;30.17;21.70;;;11.30;92.30;;;;;;6189293;23;19993;-92
2021/10/09 21:43:58;;;;;;;29.33;21.70;;;11.30;92.40;;;;;;6216246;23;20004;-92
2021/10/09 21:46:54;;;;;;;;;;;;;;;;;;;;;
2021/10/09 21:49:44;;;;;;;27.50;21.00;;;11.30;92.40;;;;;;6234066;23;20338;-92
2021/10/09 21:52:32;;;;;;;30.27;22.77;;;11.20;92.40;;;;;;6237482;23;20008;-91
2021/10/09 21:55:09;;;;;;;30.27;22.40;;;11.20;92.40;;;;;;6212145;23;20000;-91
2021/10/09 21:57:51;;;;;;;29.77;21.92;;;11.20;92.40;;;;;;6213725;23;20012;-93
2021/10/09 22:18:40;;;;;;;;;;;;;;;;;;;;;
2021/10/09 22:32:49;;;;;;;28.50;21.98;;;10.70;92.20;;;;;;6235371;23;20007;-91
2021/10/09 22:35:52;;;;;;;27.45;21.20;;;10.70;92.20;;;;;;6165375;23;20358;-93
2021/10/09 22:38:23;;;;;;;26.80;20.05;;;10.60;92.20;;;;;;6197922;23;20004;-92
2021/10/09 22:40:51;;;;;;;27.93;21.00;;;10.60;92.20;;;;;;6162668;23;20004;-91
2021/10/09 22:43:34;;;;;;;28.70;20.35;;;10.60;92.10;;;;;;6184521;23;20000;-92
2021/10/09 22:46:20;;;;;;;28.08;20.92;;;10.50;92.10;;;;;;6186352;23;20000;-93
2021/10/09 22:49:01;;;;;;;;;;;;;;;;;;;;;
2021/10/09 22:52:01;;;;;;;;;;;;;;;;;;;;;
2021/10/09 22:54:29;;;;;;;27.85;20.25;;;10.50;92.20;;;;;;6238080;23;19900;-92
2021/10/09 22:57:13;;;;;;;27.40;20.30;;;10.40;92.20;;;;;;6211232;23;20013;-91
2021/10/09 22:59:57;;;;;;;26.55;19.63;;;10.40;92.20;;;;;;6188907;23;20008;-91
2021/10/09 23:02:56;;;;;;;25.25;19.38;;;10.30;92.20;;;;;;6188365;23;20000;-90
2021/10/09 23:05:43;;;;;;;24.77;19.17;;;10.30;92.20;;;;;;6191066;23;20008;-90
2021/10/09 23:08:32;;;;;;;25.20;20.00;;;10.20;92.20;;;;;;6188054;23;20001;-92
2021/10/09 23:11:40;;;;;;;27.17;20.63;;;10.20;92.20;;;;;;6184304;23;20005;-93
2021/10/09 23:14:29;;;;;;;;;;;;;;;;;;;;;
2021/10/09 23:17:24;;;;;;;28.55;20.20;;;10.20;92.30;;;;;;6234380;23;20008;-91
2021/10/09 23:20:05;;;;;;;;;;;;;;;;;;;;;
2021/10/09 23:22:39;;;;;;;25.38;19.63;;;10.20;92.30;;;;;;6233459;23;20000;-92
2021/10/09 23:25:22;;;;;;;;;;;;;;;;;;;;;
2021/10/09 23:28:10;;;;;;;;;;;;;;;;;;;;;
2021/10/09 23:30:37;;;;;;;27.30;20.35;;;10.20;92.40;;;;;;6235111;23;20004;-91
2021/10/09 23:33:27;;;;;;;;;;;;;;;;;;;;;
2021/10/09 23:36:29;;;;;;;30.30;21.02;;;10.20;92.50;;;;;;6237590;23;20009;-93
2021/10/09 23:39:27;;;;;;;;;;;;;;;;;;;;;
2021/10/09 23:42:03;;;;;;;;;;;;;;;;;;;;;
2021/10/09 23:44:42;;;;;;;27.42;18.80;;;10.10;92.50;;;;;;6243144;23;19989;-92
2021/10/09 23:47:55;;;;;;;29.25;20.50;;;10.20;92.60;;;;;;6194055;23;20008;-92
2021/10/09 23:53:37;;;;;;;26.13;19.75;;;10.10;92.50;;;;;;6181780;23;20008;-91
2021/10/09 23:56:06;;;;;;;;;;;10.10;92.50;;;;;;6211713;23;20000;-93
2021/10/09 23:58:40;;;;;;;25.30;19.38;;;10.10;92.50;;;;;;6211265;23;19900;-93
